Aeroporto :
LOGIN :

Iscrizione | Disclaimer

   EN    FR    IT 

 










Sommario :    VFR   VFR Marginale   IFR   IFR Intensivo   IFR Molto Intensivo
Visibilità : 
Base nubi : 
>= 8 km
>= 3000ft
5 / 8 km
1000 / 3000 ft
1500m / 5 km
500 / 1000 ft
800 / 1500m
200 / 500 ft
< 800m
< 200 ft
Simboli :   Temporali  Nebbia  Neve Forte  Precipitazioni Forti  Vento > 20 kt
SIGMETs :   Varie  Temporali  Ghiacco  Turbolenza  Onda orograficha  Ceneri Vulcaniche






- Altitudine del aeroporto : 587 ft
- Codice IATA : XCR


LFOK - Chalons Vatry

ULTIMO METAR :
  • 291400Z AUTO 26018KT 9999 FEW046 SCT068 BKN084 09/06 Q0996 BECMG 26020G30KT

METARs OBSOLETI :
  • 291330Z AUTO 24019KT 9999 FEW022 BKN045 BKN052 08/07 Q0995 BECMG 26020G30KT
  • 291300Z AUTO 23030G46KT 9999 3500 RA FEW023 BKN030 OVC036 10/08 Q0994 TEMPO 1200 TSRAGS BKN010 BKN025CB BECMG 26020G30KT
  • 291230Z AUTO 22031G43KT 9999 BKN029 BKN035 BKN130 11/08 Q0993 TEMPO 1200 TSRAGS BKN010 BKN025CB BECMG 26020G30KT
  • 291200Z AUTO 21031KT 9999 SCT033 BKN047 OVC056 11/08 Q0994 TEMPO 23030G55KT 2000 RA BKN010 BKN025CB
  • 291130Z AUTO 22029G41KT 9999 -RA SCT034 BKN042 BKN049 11/08 Q0994 TEMPO 22030G55KT 2000 SHRA BKN010 BKN025CB

TAF AMD TAF LFOK
Valido dal 29 a 12 ore il 01 a 12 ore UTC


291204Z 2912/0112 19025G35KT 9999 BKN030
TEMPO 2912/2914 23030G55KT 2000 RA BKN010 BKN025CB
PROB40
TEMPO 2912/2914 1200 TSRAGS
FM291400 26020G30KT 9999 BKN030
TEMPO 2916/2920 24025G45KT 4000 SHRA BKN030CB
BECMG 2920/2922 20015G25KT
TEMPO 0106/0109 BKN012



MetMap, La meteo Aeronautica in un colpo d'occhio ! - Copyright ORBIFLY Dicembre 2007 - Disclaimer

ORBIFLY MET'MAP TEAM :

Programmazione e sviluppo : Alexandra Zaïnal
Concezione : Baudouin d'Aumeries
Aiuto per la programmazione : Marc-Olivier Méhu
Supporto tecnico e logistico : Manuel Goepfert
Aiuto per la traduzione : Arnaldo La Scala

Contatto : metmap@orbifly.com




FONTI E CREDITI :

   NOAA